sensor_id;sensor_type;location;lat;lon;timestamp;P1;durP1;ratioP1;P2;durP2;ratioP2
44000;SDS011;29660;42.892;24.710;2024-03-29T00:03:24;13.55;;;5.57;;
44000;SDS011;29660;42.892;24.710;2024-03-29T00:08:45;16.85;;;7.18;;
44000;SDS011;29660;42.892;24.710;2024-03-29T00:14:06;17.35;;;9.75;;
44000;SDS011;29660;42.892;24.710;2024-03-29T00:19:27;13.88;;;7.75;;
44000;SDS011;29660;42.892;24.710;2024-03-29T00:24:49;14.45;;;9.13;;
44000;SDS011;29660;42.892;24.710;2024-03-29T00:30:10;11.68;;;5.18;;
44000;SDS011;29660;42.892;24.710;2024-03-29T00:35:31;10.25;;;4.13;;
44000;SDS011;29660;42.892;24.710;2024-03-29T00:40:52;11.27;;;5.07;;
44000;SDS011;29660;42.892;24.710;2024-03-29T00:46:14;17.88;;;7.15;;
44000;SDS011;29660;42.892;24.710;2024-03-29T00:51:35;13.65;;;4.63;;
44000;SDS011;29660;42.892;24.710;2024-03-29T00:56:57;10.52;;;3.97;;
44000;SDS011;29660;42.892;24.710;2024-03-29T01:02:18;11.57;;;4.93;;
44000;SDS011;29660;42.892;24.710;2024-03-29T01:07:42;10.95;;;4.88;;
44000;SDS011;29660;42.892;24.710;2024-03-29T01:13:03;12.05;;;6.07;;
44000;SDS011;29660;42.892;24.710;2024-03-29T01:18:24;14.68;;;7.00;;
44000;SDS011;29660;42.892;24.710;2024-03-29T01:23:46;9.98;;;5.55;;
44000;SDS011;29660;42.892;24.710;2024-03-29T01:29:07;10.68;;;5.50;;
44000;SDS011;29660;42.892;24.710;2024-03-29T01:34:28;12.40;;;4.72;;
44000;SDS011;29660;42.892;24.710;2024-03-29T01:39:49;12.70;;;5.25;;
44000;SDS011;29660;42.892;24.710;2024-03-29T01:45:10;12.85;;;5.75;;
44000;SDS011;29660;42.892;24.710;2024-03-29T01:50:32;9.48;;;5.25;;
44000;SDS011;29660;42.892;24.710;2024-03-29T01:55:54;12.85;;;4.85;;
44000;SDS011;29660;42.892;24.710;2024-03-29T02:01:16;8.75;;;3.75;;
44000;SDS011;29660;42.892;24.710;2024-03-29T02:06:39;6.53;;;3.28;;
44000;SDS011;29660;42.892;24.710;2024-03-29T02:12:00;8.57;;;3.92;;
44000;SDS011;29660;42.892;24.710;2024-03-29T02:17:21;12.30;;;4.07;;
44000;SDS011;29660;42.892;24.710;2024-03-29T02:22:45;10.48;;;4.45;;
44000;SDS011;29660;42.892;24.710;2024-03-29T02:28:13;7.47;;;3.83;;
44000;SDS011;29660;42.892;24.710;2024-03-29T02:33:35;9.38;;;4.07;;
44000;SDS011;29660;42.892;24.710;2024-03-29T02:38:56;5.68;;;3.17;;
44000;SDS011;29660;42.892;24.710;2024-03-29T02:44:18;8.73;;;3.25;;
44000;SDS011;29660;42.892;24.710;2024-03-29T02:49:39;10.27;;;5.10;;
44000;SDS011;29660;42.892;24.710;2024-03-29T02:55:00;7.25;;;2.60;;
44000;SDS011;29660;42.892;24.710;2024-03-29T03:00:40;11.02;;;2.70;;
44000;SDS011;29660;42.892;24.710;2024-03-29T03:06:01;7.93;;;3.10;;
44000;SDS011;29660;42.892;24.710;2024-03-29T03:11:23;9.18;;;3.35;;
44000;SDS011;29660;42.892;24.710;2024-03-29T03:16:44;9.20;;;4.78;;
44000;SDS011;29660;42.892;24.710;2024-03-29T03:22:06;15.05;;;8.07;;
44000;SDS011;29660;42.892;24.710;2024-03-29T03:27:27;6.63;;;4.32;;
44000;SDS011;29660;42.892;24.710;2024-03-29T03:32:48;7.78;;;3.78;;
44000;SDS011;29660;42.892;24.710;2024-03-29T03:38:09;12.05;;;6.70;;
44000;SDS011;29660;42.892;24.710;2024-03-29T03:43:31;10.32;;;5.80;;
44000;SDS011;29660;42.892;24.710;2024-03-29T03:48:52;11.00;;;5.13;;
44000;SDS011;29660;42.892;24.710;2024-03-29T03:54:14;9.15;;;5.07;;
44000;SDS011;29660;42.892;24.710;2024-03-29T03:59:35;18.13;;;10.52;;
44000;SDS011;29660;42.892;24.710;2024-03-29T04:04:56;8.63;;;3.72;;
44000;SDS011;29660;42.892;24.710;2024-03-29T04:10:18;33.80;;;25.17;;
44000;SDS011;29660;42.892;24.710;2024-03-29T04:15:39;12.55;;;8.70;;
44000;SDS011;29660;42.892;24.710;2024-03-29T04:21:01;18.30;;;10.75;;
44000;SDS011;29660;42.892;24.710;2024-03-29T04:26:23;18.45;;;12.52;;
44000;SDS011;29660;42.892;24.710;2024-03-29T04:31:45;28.90;;;15.65;;
44000;SDS011;29660;42.892;24.710;2024-03-29T04:37:06;15.07;;;11.10;;
44000;SDS011;29660;42.892;24.710;2024-03-29T04:42:28;15.18;;;11.05;;
44000;SDS011;29660;42.892;24.710;2024-03-29T04:47:50;15.25;;;10.07;;
44000;SDS011;29660;42.892;24.710;2024-03-29T04:53:13;24.27;;;17.02;;
44000;SDS011;29660;42.892;24.710;2024-03-29T04:58:35;37.13;;;29.75;;
44000;SDS011;29660;42.892;24.710;2024-03-29T05:03:56;23.27;;;20.77;;
44000;SDS011;29660;42.892;24.710;2024-03-29T05:09:17;19.50;;;12.88;;
44000;SDS011;29660;42.892;24.710;2024-03-29T05:14:38;23.58;;;11.10;;
44000;SDS011;29660;42.892;24.710;2024-03-29T05:20:00;21.90;;;10.32;;
44000;SDS011;29660;42.892;24.710;2024-03-29T05:25:21;22.13;;;10.20;;
44000;SDS011;29660;42.892;24.710;2024-03-29T05:30:42;30.60;;;13.20;;
44000;SDS011;29660;42.892;24.710;2024-03-29T05:36:04;24.08;;;12.02;;
44000;SDS011;29660;42.892;24.710;2024-03-29T05:41:27;26.33;;;14.10;;
44000;SDS011;29660;42.892;24.710;2024-03-29T05:46:49;18.25;;;10.70;;
44000;SDS011;29660;42.892;24.710;2024-03-29T05:52:10;26.25;;;11.48;;
44000;SDS011;29660;42.892;24.710;2024-03-29T05:57:34;18.98;;;10.02;;
44000;SDS011;29660;42.892;24.710;2024-03-29T06:02:59;21.60;;;9.60;;
44000;SDS011;29660;42.892;24.710;2024-03-29T06:08:20;14.73;;;8.18;;
44000;SDS011;29660;42.892;24.710;2024-03-29T06:13:42;12.63;;;9.02;;
44000;SDS011;29660;42.892;24.710;2024-03-29T06:19:15;24.35;;;16.42;;
44000;SDS011;29660;42.892;24.710;2024-03-29T06:24:36;25.17;;;13.25;;
44000;SDS011;29660;42.892;24.710;2024-03-29T06:29:59;20.98;;;11.80;;
44000;SDS011;29660;42.892;24.710;2024-03-29T06:35:21;13.82;;;6.95;;
44000;SDS011;29660;42.892;24.710;2024-03-29T06:40:42;19.15;;;8.35;;
44000;SDS011;29660;42.892;24.710;2024-03-29T06:46:04;11.68;;;6.97;;
44000;SDS011;29660;42.892;24.710;2024-03-29T06:51:26;15.88;;;6.78;;
44000;SDS011;29660;42.892;24.710;2024-03-29T06:56:48;14.30;;;6.18;;
44000;SDS011;29660;42.892;24.710;2024-03-29T07:02:10;11.90;;;5.20;;
44000;SDS011;29660;42.892;24.710;2024-03-29T07:07:31;9.73;;;5.43;;
44000;SDS011;29660;42.892;24.710;2024-03-29T07:12:52;6.63;;;3.90;;
44000;SDS011;29660;42.892;24.710;2024-03-29T07:18:14;9.02;;;4.47;;
44000;SDS011;29660;42.892;24.710;2024-03-29T07:23:35;10.48;;;2.90;;
44000;SDS011;29660;42.892;24.710;2024-03-29T07:28:56;7.40;;;2.33;;
44000;SDS011;29660;42.892;24.710;2024-03-29T07:34:18;7.32;;;1.48;;
44000;SDS011;29660;42.892;24.710;2024-03-29T07:39:41;5.60;;;1.55;;
44000;SDS011;29660;42.892;24.710;2024-03-29T07:45:02;5.28;;;1.55;;
44000;SDS011;29660;42.892;24.710;2024-03-29T07:50:24;4.32;;;1.27;;
44000;SDS011;29660;42.892;24.710;2024-03-29T07:55:45;4.90;;;1.50;;
44000;SDS011;29660;42.892;24.710;2024-03-29T08:01:10;3.15;;;1.20;;
44000;SDS011;29660;42.892;24.710;2024-03-29T08:06:31;5.00;;;1.20;;
44000;SDS011;29660;42.892;24.710;2024-03-29T08:11:52;5.97;;;1.60;;
44000;SDS011;29660;42.892;24.710;2024-03-29T08:17:13;5.00;;;1.92;;
44000;SDS011;29660;42.892;24.710;2024-03-29T08:22:35;4.80;;;3.58;;
44000;SDS011;29660;42.892;24.710;2024-03-29T08:27:56;3.63;;;1.65;;
44000;SDS011;29660;42.892;24.710;2024-03-29T08:33:20;5.88;;;1.35;;
44000;SDS011;29660;42.892;24.710;2024-03-29T08:38:42;5.40;;;1.60;;
44000;SDS011;29660;42.892;24.710;2024-03-29T08:44:05;6.75;;;1.42;;
44000;SDS011;29660;42.892;24.710;2024-03-29T08:49:27;7.97;;;1.60;;
44000;SDS011;29660;42.892;24.710;2024-03-29T08:54:49;5.32;;;1.90;;
44000;SDS011;29660;42.892;24.710;2024-03-29T09:00:10;4.65;;;1.67;;
44000;SDS011;29660;42.892;24.710;2024-03-29T09:05:32;4.03;;;1.42;;
44000;SDS011;29660;42.892;24.710;2024-03-29T09:10:53;4.95;;;1.60;;
44000;SDS011;29660;42.892;24.710;2024-03-29T09:16:14;6.53;;;1.23;;
44000;SDS011;29660;42.892;24.710;2024-03-29T09:21:35;4.35;;;1.20;;
44000;SDS011;29660;42.892;24.710;2024-03-29T09:26:57;3.78;;;1.20;;
44000;SDS011;29660;42.892;24.710;2024-03-29T09:32:18;5.15;;;1.45;;
44000;SDS011;29660;42.892;24.710;2024-03-29T09:37:40;4.70;;;2.38;;
44000;SDS011;29660;42.892;24.710;2024-03-29T09:43:03;5.28;;;1.20;;
44000;SDS011;29660;42.892;24.710;2024-03-29T09:48:24;4.90;;;1.67;;
44000;SDS011;29660;42.892;24.710;2024-03-29T09:53:47;5.72;;;1.42;;
44000;SDS011;29660;42.892;24.710;2024-03-29T09:59:10;5.53;;;1.30;;
44000;SDS011;29660;42.892;24.710;2024-03-29T10:04:31;5.72;;;1.50;;
44000;SDS011;29660;42.892;24.710;2024-03-29T10:09:53;6.78;;;1.70;;
44000;SDS011;29660;42.892;24.710;2024-03-29T10:15:16;5.72;;;1.33;;
44000;SDS011;29660;42.892;24.710;2024-03-29T10:20:39;2.50;;;0.90;;
44000;SDS011;29660;42.892;24.710;2024-03-29T10:26:00;4.00;;;1.38;;
44000;SDS011;29660;42.892;24.710;2024-03-29T10:31:22;2.70;;;1.50;;
44000;SDS011;29660;42.892;24.710;2024-03-29T10:36:43;3.15;;;1.50;;
44000;SDS011;29660;42.892;24.710;2024-03-29T10:42:04;5.78;;;1.30;;
44000;SDS011;29660;42.892;24.710;2024-03-29T10:47:26;4.35;;;1.50;;
44000;SDS011;29660;42.892;24.710;2024-03-29T10:52:50;9.30;;;3.63;;
44000;SDS011;29660;42.892;24.710;2024-03-29T10:58:11;6.82;;;1.40;;
44000;SDS011;29660;42.892;24.710;2024-03-29T11:03:47;4.13;;;1.27;;
44000;SDS011;29660;42.892;24.710;2024-03-29T11:09:14;5.07;;;1.20;;
44000;SDS011;29660;42.892;24.710;2024-03-29T11:14:45;4.68;;;1.25;;
44000;SDS011;29660;42.892;24.710;2024-03-29T11:20:11;4.07;;;1.48;;
44000;SDS011;29660;42.892;24.710;2024-03-29T11:25:39;4.95;;;1.20;;
44000;SDS011;29660;42.892;24.710;2024-03-29T11:31:02;2.75;;;1.00;;
44000;SDS011;29660;42.892;24.710;2024-03-29T11:36:30;2.60;;;0.90;;
44000;SDS011;29660;42.892;24.710;2024-03-29T11:41:52;4.10;;;1.20;;
44000;SDS011;29660;42.892;24.710;2024-03-29T11:47:14;4.05;;;1.52;;
44000;SDS011;29660;42.892;24.710;2024-03-29T11:52:39;2.85;;;1.05;;
44000;SDS011;29660;42.892;24.710;2024-03-29T11:58:00;7.25;;;3.05;;
44000;SDS011;29660;42.892;24.710;2024-03-29T12:03:21;5.63;;;1.30;;
44000;SDS011;29660;42.892;24.710;2024-03-29T12:08:44;3.70;;;1.48;;
44000;SDS011;29660;42.892;24.710;2024-03-29T12:14:11;4.72;;;1.10;;
44000;SDS011;29660;42.892;24.710;2024-03-29T12:19:33;5.13;;;1.50;;
44000;SDS011;29660;42.892;24.710;2024-03-29T12:24:57;5.28;;;1.20;;
44000;SDS011;29660;42.892;24.710;2024-03-29T12:30:18;3.28;;;1.33;;
44000;SDS011;29660;42.892;24.710;2024-03-29T12:35:40;4.15;;;1.48;;
44000;SDS011;29660;42.892;24.710;2024-03-29T12:41:05;3.08;;;1.15;;
44000;SDS011;29660;42.892;24.710;2024-03-29T12:46:26;4.57;;;1.20;;
44000;SDS011;29660;42.892;24.710;2024-03-29T12:51:49;4.18;;;1.30;;
44000;SDS011;29660;42.892;24.710;2024-03-29T12:57:10;7.43;;;4.00;;
44000;SDS011;29660;42.892;24.710;2024-03-29T13:02:32;5.07;;;1.33;;
44000;SDS011;29660;42.892;24.710;2024-03-29T13:07:53;3.63;;;1.20;;
44000;SDS011;29660;42.892;24.710;2024-03-29T13:13:15;6.28;;;1.55;;
44000;SDS011;29660;42.892;24.710;2024-03-29T13:18:36;6.38;;;1.40;;
44000;SDS011;29660;42.892;24.710;2024-03-29T13:23:58;2.58;;;1.33;;
44000;SDS011;29660;42.892;24.710;2024-03-29T13:29:20;3.00;;;1.08;;
44000;SDS011;29660;42.892;24.710;2024-03-29T13:34:41;3.95;;;1.40;;
44000;SDS011;29660;42.892;24.710;2024-03-29T13:40:02;4.13;;;1.40;;
44000;SDS011;29660;42.892;24.710;2024-03-29T13:45:24;6.63;;;1.45;;
44000;SDS011;29660;42.892;24.710;2024-03-29T13:50:48;5.88;;;1.50;;
44000;SDS011;29660;42.892;24.710;2024-03-29T13:56:11;5.20;;;1.40;;
44000;SDS011;29660;42.892;24.710;2024-03-29T14:01:32;7.18;;;2.17;;
44000;SDS011;29660;42.892;24.710;2024-03-29T14:06:53;5.72;;;1.70;;
44000;SDS011;29660;42.892;24.710;2024-03-29T14:12:14;4.78;;;1.65;;
44000;SDS011;29660;42.892;24.710;2024-03-29T14:17:35;6.93;;;1.50;;
44000;SDS011;29660;42.892;24.710;2024-03-29T14:22:57;5.70;;;1.40;;
44000;SDS011;29660;42.892;24.710;2024-03-29T14:28:24;3.88;;;1.42;;
44000;SDS011;29660;42.892;24.710;2024-03-29T14:33:45;4.22;;;1.15;;
44000;SDS011;29660;42.892;24.710;2024-03-29T14:39:07;4.28;;;1.42;;
44000;SDS011;29660;42.892;24.710;2024-03-29T14:44:28;4.45;;;1.60;;
44000;SDS011;29660;42.892;24.710;2024-03-29T14:49:49;5.43;;;1.80;;
44000;SDS011;29660;42.892;24.710;2024-03-29T14:55:10;6.25;;;1.50;;
44000;SDS011;29660;42.892;24.710;2024-03-29T15:00:32;4.22;;;1.55;;
44000;SDS011;29660;42.892;24.710;2024-03-29T15:05:53;3.83;;;1.58;;
44000;SDS011;29660;42.892;24.710;2024-03-29T15:11:14;5.78;;;1.50;;
44000;SDS011;29660;42.892;24.710;2024-03-29T15:16:36;4.05;;;1.30;;
44000;SDS011;29660;42.892;24.710;2024-03-29T15:21:57;3.85;;;1.27;;
44000;SDS011;29660;42.892;24.710;2024-03-29T15:27:18;7.32;;;1.70;;
44000;SDS011;29660;42.892;24.710;2024-03-29T15:32:58;4.25;;;1.58;;
44000;SDS011;29660;42.892;24.710;2024-03-29T15:38:20;8.00;;;3.72;;
44000;SDS011;29660;42.892;24.710;2024-03-29T15:43:46;7.95;;;4.57;;
44000;SDS011;29660;42.892;24.710;2024-03-29T15:49:07;8.77;;;3.60;;
44000;SDS011;29660;42.892;24.710;2024-03-29T15:54:28;5.30;;;2.45;;
44000;SDS011;29660;42.892;24.710;2024-03-29T15:59:49;7.35;;;2.40;;
44000;SDS011;29660;42.892;24.710;2024-03-29T16:05:10;4.38;;;1.50;;
44000;SDS011;29660;42.892;24.710;2024-03-29T16:10:32;6.10;;;2.00;;
44000;SDS011;29660;42.892;24.710;2024-03-29T16:16:03;6.95;;;2.30;;
44000;SDS011;29660;42.892;24.710;2024-03-29T16:21:25;5.25;;;2.40;;
44000;SDS011;29660;42.892;24.710;2024-03-29T16:26:49;7.35;;;3.22;;
44000;SDS011;29660;42.892;24.710;2024-03-29T16:32:11;7.10;;;3.00;;
44000;SDS011;29660;42.892;24.710;2024-03-29T16:37:32;8.50;;;2.42;;
44000;SDS011;29660;42.892;24.710;2024-03-29T16:42:53;13.48;;;8.63;;
44000;SDS011;29660;42.892;24.710;2024-03-29T16:48:14;44.35;;;33.03;;
44000;SDS011;29660;42.892;24.710;2024-03-29T16:53:36;22.48;;;17.33;;
44000;SDS011;29660;42.892;24.710;2024-03-29T16:58:57;52.25;;;34.00;;
44000;SDS011;29660;42.892;24.710;2024-03-29T17:04:18;35.45;;;19.85;;
44000;SDS011;29660;42.892;24.710;2024-03-29T17:09:40;31.13;;;17.40;;
44000;SDS011;29660;42.892;24.710;2024-03-29T17:15:02;30.90;;;15.55;;
44000;SDS011;29660;42.892;24.710;2024-03-29T17:20:24;50.25;;;36.53;;
44000;SDS011;29660;42.892;24.710;2024-03-29T17:25:45;58.80;;;43.45;;
44000;SDS011;29660;42.892;24.710;2024-03-29T17:31:06;43.83;;;30.80;;
44000;SDS011;29660;42.892;24.710;2024-03-29T17:36:27;48.58;;;28.65;;
44000;SDS011;29660;42.892;24.710;2024-03-29T17:41:48;31.70;;;22.25;;
44000;SDS011;29660;42.892;24.710;2024-03-29T17:47:09;14.88;;;7.72;;
44000;SDS011;29660;42.892;24.710;2024-03-29T17:52:31;18.05;;;9.57;;
44000;SDS011;29660;42.892;24.710;2024-03-29T17:57:52;27.75;;;18.42;;
44000;SDS011;29660;42.892;24.710;2024-03-29T18:03:15;31.42;;;16.92;;
44000;SDS011;29660;42.892;24.710;2024-03-29T18:08:36;26.58;;;14.70;;
44000;SDS011;29660;42.892;24.710;2024-03-29T18:13:57;31.52;;;18.63;;
44000;SDS011;29660;42.892;24.710;2024-03-29T18:19:18;23.23;;;16.67;;
44000;SDS011;29660;42.892;24.710;2024-03-29T18:24:58;28.15;;;19.08;;
44000;SDS011;29660;42.892;24.710;2024-03-29T18:30:19;30.65;;;17.17;;
44000;SDS011;29660;42.892;24.710;2024-03-29T18:35:41;22.33;;;13.57;;
44000;SDS011;29660;42.892;24.710;2024-03-29T18:41:02;258.85;;;65.65;;
44000;SDS011;29660;42.892;24.710;2024-03-29T18:46:23;179.48;;;47.05;;
44000;SDS011;29660;42.892;24.710;2024-03-29T18:51:44;201.52;;;52.15;;
44000;SDS011;29660;42.892;24.710;2024-03-29T18:57:05;53.10;;;16.83;;
44000;SDS011;29660;42.892;24.710;2024-03-29T19:02:26;18.23;;;9.20;;
44000;SDS011;29660;42.892;24.710;2024-03-29T19:07:47;27.58;;;11.20;;
44000;SDS011;29660;42.892;24.710;2024-03-29T19:13:09;63.28;;;22.33;;
44000;SDS011;29660;42.892;24.710;2024-03-29T19:18:30;30.33;;;15.63;;
44000;SDS011;29660;42.892;24.710;2024-03-29T19:23:51;19.70;;;11.23;;
44000;SDS011;29660;42.892;24.710;2024-03-29T19:29:12;21.15;;;12.00;;
44000;SDS011;29660;42.892;24.710;2024-03-29T19:34:34;42.75;;;23.48;;
44000;SDS011;29660;42.892;24.710;2024-03-29T19:39:55;50.20;;;32.47;;
44000;SDS011;29660;42.892;24.710;2024-03-29T19:45:16;31.60;;;18.00;;
44000;SDS011;29660;42.892;24.710;2024-03-29T19:50:39;28.50;;;16.38;;
44000;SDS011;29660;42.892;24.710;2024-03-29T19:56:01;20.40;;;12.98;;
44000;SDS011;29660;42.892;24.710;2024-03-29T20:01:22;26.35;;;14.98;;
44000;SDS011;29660;42.892;24.710;2024-03-29T20:06:43;26.45;;;18.45;;
44000;SDS011;29660;42.892;24.710;2024-03-29T20:12:04;16.42;;;10.30;;
44000;SDS011;29660;42.892;24.710;2024-03-29T20:17:25;33.38;;;23.15;;
44000;SDS011;29660;42.892;24.710;2024-03-29T20:22:46;30.27;;;17.63;;
44000;SDS011;29660;42.892;24.710;2024-03-29T20:28:08;43.97;;;28.05;;
44000;SDS011;29660;42.892;24.710;2024-03-29T20:33:30;40.97;;;26.20;;
44000;SDS011;29660;42.892;24.710;2024-03-29T20:38:52;24.45;;;11.25;;
44000;SDS011;29660;42.892;24.710;2024-03-29T20:44:18;23.23;;;14.75;;
44000;SDS011;29660;42.892;24.710;2024-03-29T20:49:39;12.73;;;8.52;;
44000;SDS011;29660;42.892;24.710;2024-03-29T20:55:01;17.38;;;8.00;;
44000;SDS011;29660;42.892;24.710;2024-03-29T21:00:25;17.67;;;10.05;;
44000;SDS011;29660;42.892;24.710;2024-03-29T21:05:46;19.00;;;12.23;;
44000;SDS011;29660;42.892;24.710;2024-03-29T21:11:07;23.52;;;12.23;;
44000;SDS011;29660;42.892;24.710;2024-03-29T21:16:28;21.65;;;11.25;;
44000;SDS011;29660;42.892;24.710;2024-03-29T21:21:49;28.88;;;14.70;;
44000;SDS011;29660;42.892;24.710;2024-03-29T21:27:10;23.25;;;13.07;;
44000;SDS011;29660;42.892;24.710;2024-03-29T21:32:31;25.52;;;13.57;;
44000;SDS011;29660;42.892;24.710;2024-03-29T21:37:53;23.35;;;12.70;;
44000;SDS011;29660;42.892;24.710;2024-03-29T21:43:14;20.67;;;11.20;;
44000;SDS011;29660;42.892;24.710;2024-03-29T21:48:37;19.15;;;11.23;;
44000;SDS011;29660;42.892;24.710;2024-03-29T21:53:59;16.60;;;10.15;;
44000;SDS011;29660;42.892;24.710;2024-03-29T21:59:20;11.95;;;7.95;;
44000;SDS011;29660;42.892;24.710;2024-03-29T22:04:42;13.30;;;8.20;;
44000;SDS011;29660;42.892;24.710;2024-03-29T22:10:03;22.33;;;10.68;;
44000;SDS011;29660;42.892;24.710;2024-03-29T22:15:24;19.33;;;10.35;;
44000;SDS011;29660;42.892;24.710;2024-03-29T22:20:45;14.02;;;8.75;;
44000;SDS011;29660;42.892;24.710;2024-03-29T22:26:06;22.13;;;11.55;;
44000;SDS011;29660;42.892;24.710;2024-03-29T22:31:28;30.35;;;15.32;;
44000;SDS011;29660;42.892;24.710;2024-03-29T22:36:49;19.00;;;12.10;;
44000;SDS011;29660;42.892;24.710;2024-03-29T22:42:10;17.95;;;10.52;;
44000;SDS011;29660;42.892;24.710;2024-03-29T22:47:32;20.08;;;10.45;;
44000;SDS011;29660;42.892;24.710;2024-03-29T22:52:53;12.98;;;6.75;;
44000;SDS011;29660;42.892;24.710;2024-03-29T22:58:14;10.50;;;5.75;;
44000;SDS011;29660;42.892;24.710;2024-03-29T23:03:35;14.95;;;8.48;;
44000;SDS011;29660;42.892;24.710;2024-03-29T23:08:57;10.95;;;5.18;;
44000;SDS011;29660;42.892;24.710;2024-03-29T23:14:18;11.07;;;5.20;;
44000;SDS011;29660;42.892;24.710;2024-03-29T23:19:39;10.80;;;5.65;;
44000;SDS011;29660;42.892;24.710;2024-03-29T23:25:00;14.00;;;6.88;;
44000;SDS011;29660;42.892;24.710;2024-03-29T23:30:22;28.98;;;15.35;;
44000;SDS011;29660;42.892;24.710;2024-03-29T23:35:50;15.20;;;8.75;;
44000;SDS011;29660;42.892;24.710;2024-03-29T23:41:13;18.50;;;7.13;;
44000;SDS011;29660;42.892;24.710;2024-03-29T23:46:34;18.17;;;5.47;;
44000;SDS011;29660;42.892;24.710;2024-03-29T23:51:55;9.60;;;5.80;;
44000;SDS011;29660;42.892;24.710;2024-03-29T23:57:16;13.05;;;7.78;;
